sensor_id;sensor_type;location;lat;lon;timestamp;P1;durP1;ratioP1;P2;durP2;ratioP2
19384;SDS011;9828;54.122;17.974;2024-03-02T00:02:00;45.50;;;28.93;;
19384;SDS011;9828;54.122;17.974;2024-03-02T00:07:22;48.53;;;28.83;;
19384;SDS011;9828;54.122;17.974;2024-03-02T00:12:46;47.33;;;29.27;;
19384;SDS011;9828;54.122;17.974;2024-03-02T00:18:10;51.90;;;31.40;;
19384;SDS011;9828;54.122;17.974;2024-03-02T00:23:33;46.33;;;30.60;;
19384;SDS011;9828;54.122;17.974;2024-03-02T00:28:56;45.70;;;30.33;;
19384;SDS011;9828;54.122;17.974;2024-03-02T00:34:18;48.90;;;32.57;;
19384;SDS011;9828;54.122;17.974;2024-03-02T00:39:39;46.53;;;29.50;;
19384;SDS011;9828;54.122;17.974;2024-03-02T00:45:06;46.83;;;32.20;;
19384;SDS011;9828;54.122;17.974;2024-03-02T00:50:28;50.57;;;32.83;;
19384;SDS011;9828;54.122;17.974;2024-03-02T00:55:50;49.73;;;32.90;;
19384;SDS011;9828;54.122;17.974;2024-03-02T01:01:11;57.27;;;35.53;;
19384;SDS011;9828;54.122;17.974;2024-03-02T01:06:37;61.13;;;38.67;;
19384;SDS011;9828;54.122;17.974;2024-03-02T01:11:58;55.47;;;38.13;;
19384;SDS011;9828;54.122;17.974;2024-03-02T01:17:20;63.20;;;41.43;;
19384;SDS011;9828;54.122;17.974;2024-03-02T01:22:41;65.70;;;41.60;;
19384;SDS011;9828;54.122;17.974;2024-03-02T01:28:03;60.80;;;38.20;;
19384;SDS011;9828;54.122;17.974;2024-03-02T01:33:25;59.47;;;39.57;;
19384;SDS011;9828;54.122;17.974;2024-03-02T01:38:46;65.00;;;40.33;;
19384;SDS011;9828;54.122;17.974;2024-03-02T01:44:08;62.60;;;41.13;;
19384;SDS011;9828;54.122;17.974;2024-03-02T01:49:29;68.73;;;41.97;;
19384;SDS011;9828;54.122;17.974;2024-03-02T01:54:50;60.53;;;39.50;;
19384;SDS011;9828;54.122;17.974;2024-03-02T02:00:11;66.37;;;40.37;;
19384;SDS011;9828;54.122;17.974;2024-03-02T02:05:34;68.50;;;43.03;;
19384;SDS011;9828;54.122;17.974;2024-03-02T02:10:55;69.17;;;44.47;;
19384;SDS011;9828;54.122;17.974;2024-03-02T02:16:17;71.13;;;43.33;;
19384;SDS011;9828;54.122;17.974;2024-03-02T02:21:41;65.33;;;43.93;;
19384;SDS011;9828;54.122;17.974;2024-03-02T02:27:04;68.40;;;42.10;;
19384;SDS011;9828;54.122;17.974;2024-03-02T02:32:25;74.23;;;42.10;;
19384;SDS011;9828;54.122;17.974;2024-03-02T02:37:46;77.87;;;44.63;;
19384;SDS011;9828;54.122;17.974;2024-03-02T02:43:09;63.57;;;39.27;;
19384;SDS011;9828;54.122;17.974;2024-03-02T02:48:30;70.63;;;43.53;;
19384;SDS011;9828;54.122;17.974;2024-03-02T02:53:51;69.97;;;42.10;;
19384;SDS011;9828;54.122;17.974;2024-03-02T02:59:13;69.10;;;41.13;;
19384;SDS011;9828;54.122;17.974;2024-03-02T03:04:36;67.30;;;39.67;;
19384;SDS011;9828;54.122;17.974;2024-03-02T03:09:57;64.83;;;40.47;;
19384;SDS011;9828;54.122;17.974;2024-03-02T03:15:18;62.23;;;39.30;;
19384;SDS011;9828;54.122;17.974;2024-03-02T03:20:40;68.43;;;40.93;;
19384;SDS011;9828;54.122;17.974;2024-03-02T03:26:03;67.63;;;40.93;;
19384;SDS011;9828;54.122;17.974;2024-03-02T03:31:24;65.73;;;40.60;;
19384;SDS011;9828;54.122;17.974;2024-03-02T03:36:46;63.60;;;39.97;;
19384;SDS011;9828;54.122;17.974;2024-03-02T03:42:10;67.67;;;42.37;;
19384;SDS011;9828;54.122;17.974;2024-03-02T03:47:32;65.20;;;40.20;;
19384;SDS011;9828;54.122;17.974;2024-03-02T03:52:54;68.50;;;40.20;;
19384;SDS011;9828;54.122;17.974;2024-03-02T03:58:16;61.33;;;39.20;;
19384;SDS011;9828;54.122;17.974;2024-03-02T04:03:40;55.00;;;36.37;;
19384;SDS011;9828;54.122;17.974;2024-03-02T04:09:01;57.90;;;38.37;;
19384;SDS011;9828;54.122;17.974;2024-03-02T04:14:24;59.67;;;38.07;;
19384;SDS011;9828;54.122;17.974;2024-03-02T04:19:45;57.77;;;37.40;;
19384;SDS011;9828;54.122;17.974;2024-03-02T04:25:07;55.33;;;37.13;;
19384;SDS011;9828;54.122;17.974;2024-03-02T04:30:28;64.77;;;38.47;;
19384;SDS011;9828;54.122;17.974;2024-03-02T04:35:52;59.50;;;37.20;;
19384;SDS011;9828;54.122;17.974;2024-03-02T04:41:14;54.83;;;35.37;;
19384;SDS011;9828;54.122;17.974;2024-03-02T04:46:37;53.10;;;34.63;;
19384;SDS011;9828;54.122;17.974;2024-03-02T04:51:59;53.80;;;35.40;;
19384;SDS011;9828;54.122;17.974;2024-03-02T04:57:20;56.20;;;36.27;;
19384;SDS011;9828;54.122;17.974;2024-03-02T05:02:42;53.50;;;33.93;;
19384;SDS011;9828;54.122;17.974;2024-03-02T05:08:03;52.70;;;36.00;;
19384;SDS011;9828;54.122;17.974;2024-03-02T05:13:25;53.33;;;36.33;;
19384;SDS011;9828;54.122;17.974;2024-03-02T05:18:48;50.63;;;34.47;;
19384;SDS011;9828;54.122;17.974;2024-03-02T05:24:10;54.00;;;34.83;;
19384;SDS011;9828;54.122;17.974;2024-03-02T05:29:32;53.10;;;36.27;;
19384;SDS011;9828;54.122;17.974;2024-03-02T05:34:53;48.27;;;33.70;;
19384;SDS011;9828;54.122;17.974;2024-03-02T05:40:16;50.57;;;34.63;;
19384;SDS011;9828;54.122;17.974;2024-03-02T05:45:37;55.77;;;36.27;;
19384;SDS011;9828;54.122;17.974;2024-03-02T05:50:58;55.13;;;35.00;;
19384;SDS011;9828;54.122;17.974;2024-03-02T05:56:20;59.93;;;35.70;;
19384;SDS011;9828;54.122;17.974;2024-03-02T06:01:41;58.90;;;37.17;;
19384;SDS011;9828;54.122;17.974;2024-03-02T06:07:04;57.57;;;37.70;;
19384;SDS011;9828;54.122;17.974;2024-03-02T06:12:25;57.10;;;37.50;;
19384;SDS011;9828;54.122;17.974;2024-03-02T06:17:47;54.20;;;37.10;;
19384;SDS011;9828;54.122;17.974;2024-03-02T06:23:08;54.57;;;37.67;;
19384;SDS011;9828;54.122;17.974;2024-03-02T06:28:30;57.27;;;36.63;;
19384;SDS011;9828;54.122;17.974;2024-03-02T06:33:52;56.53;;;36.40;;
19384;SDS011;9828;54.122;17.974;2024-03-02T06:39:13;56.30;;;36.43;;
19384;SDS011;9828;54.122;17.974;2024-03-02T06:44:36;56.47;;;35.63;;
19384;SDS011;9828;54.122;17.974;2024-03-02T06:49:57;52.27;;;34.70;;
19384;SDS011;9828;54.122;17.974;2024-03-02T06:55:21;53.20;;;35.03;;
19384;SDS011;9828;54.122;17.974;2024-03-02T07:00:43;59.40;;;38.03;;
19384;SDS011;9828;54.122;17.974;2024-03-02T07:06:05;56.27;;;37.20;;
19384;SDS011;9828;54.122;17.974;2024-03-02T07:11:26;54.07;;;34.87;;
19384;SDS011;9828;54.122;17.974;2024-03-02T07:16:49;55.93;;;36.27;;
19384;SDS011;9828;54.122;17.974;2024-03-02T07:22:11;48.50;;;33.90;;
19384;SDS011;9828;54.122;17.974;2024-03-02T07:27:32;59.17;;;37.93;;
19384;SDS011;9828;54.122;17.974;2024-03-02T07:32:55;61.07;;;40.63;;
19384;SDS011;9828;54.122;17.974;2024-03-02T07:38:17;59.90;;;37.43;;
19384;SDS011;9828;54.122;17.974;2024-03-02T07:43:39;55.60;;;34.63;;
19384;SDS011;9828;54.122;17.974;2024-03-02T07:49:03;66.33;;;40.27;;
19384;SDS011;9828;54.122;17.974;2024-03-02T07:54:27;63.33;;;39.90;;
19384;SDS011;9828;54.122;17.974;2024-03-02T07:59:51;62.00;;;39.43;;
19384;SDS011;9828;54.122;17.974;2024-03-02T08:05:12;58.43;;;37.93;;
19384;SDS011;9828;54.122;17.974;2024-03-02T08:10:34;54.67;;;35.23;;
19384;SDS011;9828;54.122;17.974;2024-03-02T08:15:55;61.23;;;39.90;;
19384;SDS011;9828;54.122;17.974;2024-03-02T08:21:19;61.47;;;36.70;;
19384;SDS011;9828;54.122;17.974;2024-03-02T08:26:41;56.23;;;38.17;;
19384;SDS011;9828;54.122;17.974;2024-03-02T08:32:02;65.37;;;42.30;;
19384;SDS011;9828;54.122;17.974;2024-03-02T08:37:24;64.07;;;40.10;;
19384;SDS011;9828;54.122;17.974;2024-03-02T08:42:47;62.97;;;38.60;;
19384;SDS011;9828;54.122;17.974;2024-03-02T08:48:08;57.37;;;38.23;;
19384;SDS011;9828;54.122;17.974;2024-03-02T08:53:31;57.87;;;35.77;;
19384;SDS011;9828;54.122;17.974;2024-03-02T08:58:52;55.43;;;36.27;;
19384;SDS011;9828;54.122;17.974;2024-03-02T09:04:14;55.10;;;34.73;;
19384;SDS011;9828;54.122;17.974;2024-03-02T09:09:35;49.00;;;31.90;;
19384;SDS011;9828;54.122;17.974;2024-03-02T09:14:56;49.63;;;33.07;;
19384;SDS011;9828;54.122;17.974;2024-03-02T09:20:18;58.93;;;36.73;;
19384;SDS011;9828;54.122;17.974;2024-03-02T09:25:39;51.50;;;34.03;;
19384;SDS011;9828;54.122;17.974;2024-03-02T09:31:00;50.33;;;34.20;;
19384;SDS011;9828;54.122;17.974;2024-03-02T09:36:24;58.63;;;36.10;;
19384;SDS011;9828;54.122;17.974;2024-03-02T09:41:45;55.27;;;35.50;;
19384;SDS011;9828;54.122;17.974;2024-03-02T09:47:09;51.73;;;33.80;;
19384;SDS011;9828;54.122;17.974;2024-03-02T09:52:30;49.63;;;31.93;;
19384;SDS011;9828;54.122;17.974;2024-03-02T09:57:52;51.43;;;31.77;;
19384;SDS011;9828;54.122;17.974;2024-03-02T10:03:14;49.27;;;31.93;;
19384;SDS011;9828;54.122;17.974;2024-03-02T10:08:44;54.83;;;34.40;;
19384;SDS011;9828;54.122;17.974;2024-03-02T10:14:06;51.57;;;34.00;;
19384;SDS011;9828;54.122;17.974;2024-03-02T10:19:32;55.87;;;35.67;;
19384;SDS011;9828;54.122;17.974;2024-03-02T10:24:55;54.00;;;34.13;;
19384;SDS011;9828;54.122;17.974;2024-03-02T10:30:17;47.77;;;32.50;;
19384;SDS011;9828;54.122;17.974;2024-03-02T10:35:39;54.20;;;34.97;;
19384;SDS011;9828;54.122;17.974;2024-03-02T10:41:01;61.33;;;34.43;;
19384;SDS011;9828;54.122;17.974;2024-03-02T10:46:26;51.20;;;32.57;;
19384;SDS011;9828;54.122;17.974;2024-03-02T10:51:52;50.20;;;32.07;;
19384;SDS011;9828;54.122;17.974;2024-03-02T10:57:13;46.65;;;30.38;;
19384;SDS011;9828;54.122;17.974;2024-03-02T11:02:49;41.75;;;28.33;;
19384;SDS011;9828;54.122;17.974;2024-03-02T11:08:16;51.97;;;32.97;;
19384;SDS011;9828;54.122;17.974;2024-03-02T11:13:46;52.80;;;31.80;;
19384;SDS011;9828;54.122;17.974;2024-03-02T11:19:14;45.15;;;28.63;;
19384;SDS011;9828;54.122;17.974;2024-03-02T11:24:38;39.25;;;28.40;;
19384;SDS011;9828;54.122;17.974;2024-03-02T11:29:59;43.45;;;27.77;;
19384;SDS011;9828;54.122;17.974;2024-03-02T11:35:21;44.72;;;29.75;;
19384;SDS011;9828;54.122;17.974;2024-03-02T11:40:44;40.25;;;28.33;;
19384;SDS011;9828;54.122;17.974;2024-03-02T11:46:06;36.90;;;28.15;;
19384;SDS011;9828;54.122;17.974;2024-03-02T11:51:27;44.13;;;29.58;;
19384;SDS011;9828;54.122;17.974;2024-03-02T11:56:49;40.85;;;27.75;;
19384;SDS011;9828;54.122;17.974;2024-03-02T12:02:17;40.35;;;27.35;;
19384;SDS011;9828;54.122;17.974;2024-03-02T12:07:39;42.58;;;28.27;;
19384;SDS011;9828;54.122;17.974;2024-03-02T12:13:04;46.22;;;30.30;;
19384;SDS011;9828;54.122;17.974;2024-03-02T12:18:32;40.53;;;27.80;;
19384;SDS011;9828;54.122;17.974;2024-03-02T12:23:53;44.83;;;28.73;;
19384;SDS011;9828;54.122;17.974;2024-03-02T12:29:16;38.30;;;26.30;;
19384;SDS011;9828;54.122;17.974;2024-03-02T12:34:39;40.78;;;26.98;;
19384;SDS011;9828;54.122;17.974;2024-03-02T12:40:01;43.38;;;28.70;;
19384;SDS011;9828;54.122;17.974;2024-03-02T12:45:22;36.70;;;26.17;;
19384;SDS011;9828;54.122;17.974;2024-03-02T12:50:47;32.90;;;24.05;;
19384;SDS011;9828;54.122;17.974;2024-03-02T12:56:08;47.55;;;29.92;;
19384;SDS011;9828;54.122;17.974;2024-03-02T13:01:29;37.90;;;27.20;;
19384;SDS011;9828;54.122;17.974;2024-03-02T13:06:51;34.42;;;25.25;;
19384;SDS011;9828;54.122;17.974;2024-03-02T13:12:15;37.88;;;26.27;;
19384;SDS011;9828;54.122;17.974;2024-03-02T13:17:38;41.60;;;28.90;;
19384;SDS011;9828;54.122;17.974;2024-03-02T13:23:00;41.03;;;28.30;;
19384;SDS011;9828;54.122;17.974;2024-03-02T13:28:22;43.88;;;29.20;;
19384;SDS011;9828;54.122;17.974;2024-03-02T13:33:43;38.13;;;26.77;;
19384;SDS011;9828;54.122;17.974;2024-03-02T13:39:07;35.92;;;27.63;;
19384;SDS011;9828;54.122;17.974;2024-03-02T13:44:32;38.83;;;27.98;;
19384;SDS011;9828;54.122;17.974;2024-03-02T13:49:54;45.00;;;29.38;;
19384;SDS011;9828;54.122;17.974;2024-03-02T13:55:17;40.63;;;28.90;;
19384;SDS011;9828;54.122;17.974;2024-03-02T14:00:40;37.10;;;26.38;;
19384;SDS011;9828;54.122;17.974;2024-03-02T14:06:01;38.70;;;26.58;;
19384;SDS011;9828;54.122;17.974;2024-03-02T14:11:24;40.55;;;26.77;;
19384;SDS011;9828;54.122;17.974;2024-03-02T14:16:45;37.53;;;26.13;;
19384;SDS011;9828;54.122;17.974;2024-03-02T14:22:07;38.70;;;26.53;;
19384;SDS011;9828;54.122;17.974;2024-03-02T14:27:28;38.88;;;26.75;;
19384;SDS011;9828;54.122;17.974;2024-03-02T14:32:52;36.87;;;26.00;;
19384;SDS011;9828;54.122;17.974;2024-03-02T14:38:13;41.20;;;29.07;;
19384;SDS011;9828;54.122;17.974;2024-03-02T14:43:34;42.90;;;28.30;;
19384;SDS011;9828;54.122;17.974;2024-03-02T14:48:57;38.30;;;26.20;;
19384;SDS011;9828;54.122;17.974;2024-03-02T14:54:19;39.93;;;28.93;;
19384;SDS011;9828;54.122;17.974;2024-03-02T14:59:41;42.60;;;29.73;;
19384;SDS011;9828;54.122;17.974;2024-03-02T15:05:02;41.27;;;29.50;;
19384;SDS011;9828;54.122;17.974;2024-03-02T15:10:26;46.97;;;29.93;;
19384;SDS011;9828;54.122;17.974;2024-03-02T15:15:48;54.03;;;34.87;;
19384;SDS011;9828;54.122;17.974;2024-03-02T15:21:09;60.27;;;34.40;;
19384;SDS011;9828;54.122;17.974;2024-03-02T15:26:31;61.10;;;35.10;;
19384;SDS011;9828;54.122;17.974;2024-03-02T15:31:52;60.20;;;35.53;;
19384;SDS011;9828;54.122;17.974;2024-03-02T15:37:14;62.53;;;35.97;;
19384;SDS011;9828;54.122;17.974;2024-03-02T15:42:35;67.37;;;38.73;;
19384;SDS011;9828;54.122;17.974;2024-03-02T15:47:57;62.00;;;37.00;;
19384;SDS011;9828;54.122;17.974;2024-03-02T15:53:18;54.80;;;35.43;;
19384;SDS011;9828;54.122;17.974;2024-03-02T15:58:40;54.70;;;35.60;;
19384;SDS011;9828;54.122;17.974;2024-03-02T16:04:01;76.10;;;41.53;;
19384;SDS011;9828;54.122;17.974;2024-03-02T16:09:23;52.20;;;35.00;;
19384;SDS011;9828;54.122;17.974;2024-03-02T16:14:44;54.97;;;35.00;;
19384;SDS011;9828;54.122;17.974;2024-03-02T16:20:06;76.43;;;38.33;;
19384;SDS011;9828;54.122;17.974;2024-03-02T16:25:27;110.17;;;70.73;;
19384;SDS011;9828;54.122;17.974;2024-03-02T16:30:50;59.30;;;39.17;;
19384;SDS011;9828;54.122;17.974;2024-03-02T16:36:14;59.73;;;39.40;;
19384;SDS011;9828;54.122;17.974;2024-03-02T16:41:35;61.27;;;37.87;;
19384;SDS011;9828;54.122;17.974;2024-03-02T16:47:00;54.73;;;36.07;;
19384;SDS011;9828;54.122;17.974;2024-03-02T16:52:21;57.60;;;34.77;;
19384;SDS011;9828;54.122;17.974;2024-03-02T16:57:44;49.60;;;33.27;;
19384;SDS011;9828;54.122;17.974;2024-03-02T17:03:06;50.50;;;30.63;;
19384;SDS011;9828;54.122;17.974;2024-03-02T17:08:28;48.60;;;31.20;;
19384;SDS011;9828;54.122;17.974;2024-03-02T17:13:49;55.30;;;33.20;;
19384;SDS011;9828;54.122;17.974;2024-03-02T17:19:13;53.60;;;30.70;;
19384;SDS011;9828;54.122;17.974;2024-03-02T17:24:34;55.30;;;31.47;;
19384;SDS011;9828;54.122;17.974;2024-03-02T17:29:56;57.30;;;34.37;;
19384;SDS011;9828;54.122;17.974;2024-03-02T17:35:18;63.30;;;36.90;;
19384;SDS011;9828;54.122;17.974;2024-03-02T17:40:39;69.50;;;39.17;;
19384;SDS011;9828;54.122;17.974;2024-03-02T17:46:00;64.73;;;38.63;;
19384;SDS011;9828;54.122;17.974;2024-03-02T17:51:22;61.50;;;36.53;;
19384;SDS011;9828;54.122;17.974;2024-03-02T17:56:43;54.60;;;34.87;;
19384;SDS011;9828;54.122;17.974;2024-03-02T18:02:04;61.67;;;37.13;;
19384;SDS011;9828;54.122;17.974;2024-03-02T18:07:27;65.07;;;37.97;;
19384;SDS011;9828;54.122;17.974;2024-03-02T18:12:48;64.97;;;39.90;;
19384;SDS011;9828;54.122;17.974;2024-03-02T18:18:10;70.23;;;40.13;;
19384;SDS011;9828;54.122;17.974;2024-03-02T18:23:31;68.70;;;39.30;;
19384;SDS011;9828;54.122;17.974;2024-03-02T18:28:53;65.47;;;39.57;;
19384;SDS011;9828;54.122;17.974;2024-03-02T18:34:14;63.97;;;38.60;;
19384;SDS011;9828;54.122;17.974;2024-03-02T18:39:37;72.70;;;42.63;;
19384;SDS011;9828;54.122;17.974;2024-03-02T18:44:58;66.20;;;39.33;;
19384;SDS011;9828;54.122;17.974;2024-03-02T18:50:23;67.27;;;40.20;;
19384;SDS011;9828;54.122;17.974;2024-03-02T18:55:44;84.80;;;44.93;;
19384;SDS011;9828;54.122;17.974;2024-03-02T19:01:05;82.70;;;45.83;;
19384;SDS011;9828;54.122;17.974;2024-03-02T19:06:29;89.47;;;48.40;;
19384;SDS011;9828;54.122;17.974;2024-03-02T19:11:50;89.80;;;50.50;;
19384;SDS011;9828;54.122;17.974;2024-03-02T19:17:12;91.70;;;47.37;;
19384;SDS011;9828;54.122;17.974;2024-03-02T19:22:34;79.60;;;42.20;;
19384;SDS011;9828;54.122;17.974;2024-03-02T19:27:58;76.23;;;42.07;;
19384;SDS011;9828;54.122;17.974;2024-03-02T19:33:21;72.23;;;41.80;;
19384;SDS011;9828;54.122;17.974;2024-03-02T19:38:42;76.63;;;41.33;;
19384;SDS011;9828;54.122;17.974;2024-03-02T19:44:06;71.17;;;40.63;;
19384;SDS011;9828;54.122;17.974;2024-03-02T19:49:27;66.27;;;40.60;;
19384;SDS011;9828;54.122;17.974;2024-03-02T19:54:49;67.57;;;37.07;;
19384;SDS011;9828;54.122;17.974;2024-03-02T20:00:11;66.13;;;39.07;;
19384;SDS011;9828;54.122;17.974;2024-03-02T20:05:34;62.57;;;38.03;;
19384;SDS011;9828;54.122;17.974;2024-03-02T20:10:56;64.90;;;36.20;;
19384;SDS011;9828;54.122;17.974;2024-03-02T20:16:17;60.87;;;35.00;;
19384;SDS011;9828;54.122;17.974;2024-03-02T20:21:40;56.37;;;33.97;;
19384;SDS011;9828;54.122;17.974;2024-03-02T20:27:02;53.40;;;33.93;;
19384;SDS011;9828;54.122;17.974;2024-03-02T20:32:25;50.33;;;32.07;;
19384;SDS011;9828;54.122;17.974;2024-03-02T20:37:46;53.60;;;31.57;;
19384;SDS011;9828;54.122;17.974;2024-03-02T20:43:08;56.83;;;31.97;;
19384;SDS011;9828;54.122;17.974;2024-03-02T20:48:29;56.27;;;33.57;;
19384;SDS011;9828;54.122;17.974;2024-03-02T20:53:50;56.73;;;32.43;;
19384;SDS011;9828;54.122;17.974;2024-03-02T20:59:12;55.63;;;32.87;;
19384;SDS011;9828;54.122;17.974;2024-03-02T21:04:33;49.67;;;30.60;;
19384;SDS011;9828;54.122;17.974;2024-03-02T21:09:55;55.70;;;32.30;;
19384;SDS011;9828;54.122;17.974;2024-03-02T21:15:17;50.90;;;31.03;;
19384;SDS011;9828;54.122;17.974;2024-03-02T21:20:38;54.03;;;31.00;;
19384;SDS011;9828;54.122;17.974;2024-03-02T21:26:00;53.70;;;31.37;;
19384;SDS011;9828;54.122;17.974;2024-03-02T21:31:21;55.30;;;31.57;;
19384;SDS011;9828;54.122;17.974;2024-03-02T21:36:44;50.83;;;30.10;;
19384;SDS011;9828;54.122;17.974;2024-03-02T21:42:05;58.67;;;31.43;;
19384;SDS011;9828;54.122;17.974;2024-03-02T21:47:27;61.83;;;31.30;;
19384;SDS011;9828;54.122;17.974;2024-03-02T21:52:48;58.30;;;34.17;;
19384;SDS011;9828;54.122;17.974;2024-03-02T21:58:14;59.43;;;33.00;;
19384;SDS011;9828;54.122;17.974;2024-03-02T22:03:35;53.87;;;31.77;;
19384;SDS011;9828;54.122;17.974;2024-03-02T22:08:58;56.20;;;33.33;;
19384;SDS011;9828;54.122;17.974;2024-03-02T22:14:20;48.13;;;29.33;;
19384;SDS011;9828;54.122;17.974;2024-03-02T22:19:41;56.83;;;32.53;;
19384;SDS011;9828;54.122;17.974;2024-03-02T22:25:03;60.20;;;33.40;;
19384;SDS011;9828;54.122;17.974;2024-03-02T22:30:25;55.10;;;33.67;;
19384;SDS011;9828;54.122;17.974;2024-03-02T22:35:48;54.20;;;30.80;;
19384;SDS011;9828;54.122;17.974;2024-03-02T22:41:09;55.73;;;32.67;;
19384;SDS011;9828;54.122;17.974;2024-03-02T22:46:30;53.53;;;32.00;;
19384;SDS011;9828;54.122;17.974;2024-03-02T22:51:51;51.03;;;29.93;;
19384;SDS011;9828;54.122;17.974;2024-03-02T22:57:13;53.07;;;32.10;;
19384;SDS011;9828;54.122;17.974;2024-03-02T23:02:38;52.20;;;29.93;;
19384;SDS011;9828;54.122;17.974;2024-03-02T23:08:00;48.50;;;31.00;;
19384;SDS011;9828;54.122;17.974;2024-03-02T23:13:22;51.70;;;31.47;;
19384;SDS011;9828;54.122;17.974;2024-03-02T23:18:44;47.60;;;30.00;;
19384;SDS011;9828;54.122;17.974;2024-03-02T23:24:05;45.17;;;29.17;;
19384;SDS011;9828;54.122;17.974;2024-03-02T23:29:27;49.60;;;29.30;;
19384;SDS011;9828;54.122;17.974;2024-03-02T23:34:48;44.90;;;28.17;;
19384;SDS011;9828;54.122;17.974;2024-03-02T23:40:10;54.23;;;30.00;;
19384;SDS011;9828;54.122;17.974;2024-03-02T23:45:37;44.77;;;29.47;;
19384;SDS011;9828;54.122;17.974;2024-03-02T23:50:58;44.43;;;28.00;;
19384;SDS011;9828;54.122;17.974;2024-03-02T23:56:20;44.50;;;28.60;;
